Forside
METAR-TAF:

METAR-TAF

Lufthavne :

Komatsujima, Japan

Breddekreds: 34-00N, længdekreds: 134-38E, højde: 3 m

Aktuelle vejr

Denne rapport blev lavet for 5 timer og 16 minutter siden, kl. 03:52 UTC
Vind 22 kt fra nordnordvest med vindstød på up til 32 kt
Temperatur 9°C
Fugtighed 49%
Tryk 1022 hPa
Sigt 10 km eller mere
Nogle få skyer i en højde af 3000 ft
Brudte skyer i en højde af 4500 ft

METAR: RJOP 270352Z 34022G32KT 9999 FEW030 BKN045 09/M01 Q1022 RMK 1CU030 5SC045 A3020

Tid: 18:08 (09:08 UTC)


TAF: fraværende

Vejrobservationer og prognoser fra mere end 4000 lufthavne (METAR og TAF).

De gule og røde prikker repræsenterer de meteorologiske stationer.

Flyt musen over at se navnet på stationen.

Så klik over at se vejr observationer og prognoser.

At skifte det kort: Klik på de grønne knapper med et sort kors for at zoome ind; på den grønne knap med en bindestreg for at zoome ud; eller på de grønne pile for tilstødende kort.


METAR-TAF: